createdAt,value
2023-05-05T00:01:55.185Z,9.20
2023-05-05T00:04:24.332Z,8.95
2023-05-05T00:06:51.773Z,8.82
2023-05-05T00:09:18.987Z,8.73
2023-05-05T00:11:46.433Z,8.68
2023-05-05T00:14:14.144Z,8.73
2023-05-05T00:16:41.585Z,9.02
2023-05-05T00:19:09.249Z,9.68
2023-05-05T00:21:36.543Z,8.10
2023-05-05T00:24:03.998Z,8.80
2023-05-05T00:26:31.215Z,9.38
2023-05-05T00:28:58.649Z,8.65
2023-05-05T00:31:25.880Z,8.10
2023-05-05T00:33:53.044Z,7.70
2023-05-05T00:36:20.404Z,7.60
2023-05-05T00:38:47.550Z,8.13
2023-05-05T00:41:14.991Z,8.23
2023-05-05T00:43:42.308Z,8.77
2023-05-05T00:46:25.372Z,7.63
2023-05-05T00:48:53.161Z,7.00
2023-05-05T00:51:22.035Z,7.70
2023-05-05T00:53:49.785Z,7.63
2023-05-05T00:56:22.251Z,6.95
2023-05-05T00:58:49.981Z,7.07
2023-05-05T01:01:18.137Z,6.55
2023-05-05T01:03:45.890Z,6.07
2023-05-05T01:06:20.114Z,6.28
2023-05-05T01:08:50.813Z,6.65
2023-05-05T01:11:27.284Z,6.72
2023-05-05T01:14:16.515Z,5.70
2023-05-05T01:16:57.739Z,6.30
2023-05-05T01:19:49.995Z,6.15
2023-05-05T01:22:20.765Z,6.03
2023-05-05T01:25:26.258Z,6.38
2023-05-05T01:27:59.791Z,5.75
2023-05-05T01:30:50.252Z,6.13
2023-05-05T01:33:26.253Z,6.28
2023-05-05T01:36:03.429Z,5.82
2023-05-05T01:38:41.365Z,6.05
2023-05-05T01:41:16.207Z,6.40
2023-05-05T01:43:47.286Z,5.55
2023-05-05T01:46:16.375Z,5.53
2023-05-05T01:48:45.771Z,6.40
2023-05-05T01:51:13.693Z,6.45
2023-05-05T01:53:47.342Z,6.35
2023-05-05T01:56:16.120Z,6.00
2023-05-05T01:58:45.220Z,5.55
2023-05-05T02:01:13.674Z,5.63
2023-05-05T02:03:42.274Z,5.88
2023-05-05T02:06:12.407Z,5.45
2023-05-05T02:08:41.916Z,5.03
2023-05-05T02:11:10.942Z,4.93
2023-05-05T02:13:42.764Z,5.85
2023-05-05T02:16:16.465Z,5.20
2023-05-05T02:18:47.800Z,5.07
2023-05-05T02:21:18.219Z,5.18
2023-05-05T02:23:51.967Z,5.63
2023-05-05T02:26:22.686Z,5.40
2023-05-05T02:29:30.333Z,4.45
2023-05-05T02:32:10.222Z,4.60
2023-05-05T02:34:40.019Z,4.82
2023-05-05T02:37:15.480Z,4.78
2023-05-05T02:39:58.495Z,4.63
2023-05-05T02:42:32.310Z,4.57
2023-05-05T02:45:08.034Z,4.28
2023-05-05T02:47:37.988Z,4.85
2023-05-05T02:50:07.536Z,4.93
2023-05-05T02:52:37.383Z,4.15
2023-05-05T02:55:06.028Z,4.43
2023-05-05T02:58:14.328Z,5.70
2023-05-05T03:00:53.694Z,5.10
2023-05-05T03:03:34.927Z,5.68
2023-05-05T03:06:10.111Z,5.05
2023-05-05T03:08:40.637Z,4.90
2023-05-05T03:11:33.040Z,3.90
2023-05-05T03:14:13.487Z,5.50
2023-05-05T03:16:43.858Z,9.68
2023-05-05T03:19:14.058Z,10.50
2023-05-05T03:21:43.031Z,6.78
2023-05-05T03:24:17.839Z,6.10
2023-05-05T03:26:53.672Z,4.80
2023-05-05T03:29:24.131Z,5.03
2023-05-05T03:31:59.364Z,4.97
2023-05-05T03:34:26.672Z,4.82
2023-05-05T03:36:54.064Z,4.65
2023-05-05T03:39:21.444Z,4.70
2023-05-05T03:41:49.969Z,4.55
2023-05-05T03:44:19.415Z,4.43
2023-05-05T03:46:47.108Z,4.25
2023-05-05T03:49:15.891Z,4.43
2023-05-05T03:51:48.048Z,4.38
2023-05-05T03:54:16.894Z,4.22
2023-05-05T03:56:44.236Z,4.30
2023-05-05T03:59:12.303Z,4.25
2023-05-05T04:01:39.701Z,3.80
2023-05-05T04:04:07.207Z,3.80
2023-05-05T04:06:35.917Z,3.83
2023-05-05T04:09:03.650Z,4.72
2023-05-05T04:11:31.495Z,4.65
2023-05-05T04:13:58.994Z,4.82
2023-05-05T04:16:28.555Z,4.78
2023-05-05T04:18:57.025Z,5.65
2023-05-05T04:21:24.457Z,5.30
2023-05-05T04:23:52.540Z,5.00
2023-05-05T04:26:22.274Z,5.07
2023-05-05T04:28:50.001Z,4.28
2023-05-05T04:31:21.229Z,4.93
2023-05-05T04:33:48.748Z,5.43
2023-05-05T04:36:16.320Z,5.10
2023-05-05T04:38:43.710Z,5.32
2023-05-05T04:41:12.040Z,4.65
2023-05-05T04:43:41.698Z,4.75
2023-05-05T04:46:09.207Z,5.95
2023-05-05T04:48:38.742Z,5.15
2023-05-05T04:51:07.837Z,5.40
2023-05-05T04:53:36.310Z,5.40
2023-05-05T04:56:03.775Z,6.32
2023-05-05T04:58:31.335Z,6.65
2023-05-05T05:00:58.946Z,6.72
2023-05-05T05:03:26.462Z,5.55
2023-05-05T05:05:54.264Z,6.10
2023-05-05T05:08:21.657Z,5.35
2023-05-05T05:10:49.131Z,5.55
2023-05-05T05:13:17.270Z,5.65
2023-05-05T05:15:45.796Z,5.95
2023-05-05T05:18:13.158Z,5.70
2023-05-05T05:20:40.596Z,6.45
2023-05-05T05:23:08.394Z,6.43
2023-05-05T05:25:40.424Z,6.68
2023-05-05T05:28:10.539Z,6.95
2023-05-05T05:30:47.617Z,6.82
2023-05-05T05:33:15.534Z,7.05
2023-05-05T05:35:43.937Z,6.60
2023-05-05T05:38:11.560Z,5.93
2023-05-05T05:40:38.918Z,4.70
2023-05-05T05:43:06.997Z,4.53
2023-05-05T05:45:36.080Z,7.50
2023-05-05T05:48:05.100Z,5.55
2023-05-05T05:50:32.677Z,4.60
2023-05-05T05:53:03.096Z,5.60
2023-05-05T05:55:31.219Z,5.18
2023-05-05T05:57:58.886Z,6.07
2023-05-05T06:00:26.555Z,5.50
2023-05-05T06:03:01.489Z,5.30
2023-05-05T06:05:33.022Z,4.95
2023-05-05T06:08:00.675Z,5.38
2023-05-05T06:10:29.930Z,3.95
2023-05-05T06:13:05.347Z,3.92
2023-05-05T06:15:34.457Z,3.88
2023-05-05T06:18:03.678Z,3.80
2023-05-05T06:20:31.499Z,3.78
2023-05-05T06:22:58.978Z,4.53
2023-05-05T06:25:27.911Z,5.13
2023-05-05T06:27:55.239Z,4.70
2023-05-05T06:30:22.451Z,5.20
2023-05-05T06:32:49.953Z,3.42
2023-05-05T06:35:17.517Z,4.10
2023-05-05T06:37:44.801Z,3.72
2023-05-05T06:40:12.576Z,4.25
2023-05-05T06:42:40.972Z,4.60
2023-05-05T06:45:11.172Z,5.30
2023-05-05T06:47:38.618Z,5.28
2023-05-05T06:50:07.720Z,4.50
2023-05-05T06:52:35.192Z,3.28
2023-05-05T06:55:04.051Z,2.80
2023-05-05T06:57:31.511Z,3.70
2023-05-05T06:59:58.841Z,3.67
2023-05-05T07:02:27.060Z,5.93
2023-05-05T07:04:55.653Z,3.10
2023-05-05T07:07:23.167Z,3.83
2023-05-05T07:09:50.519Z,2.80
2023-05-05T07:12:17.914Z,3.40
2023-05-05T07:14:48.255Z,3.00
2023-05-05T07:17:15.600Z,3.30
2023-05-05T07:19:43.588Z,2.65
2023-05-05T07:22:10.988Z,2.78
2023-05-05T07:24:38.323Z,3.00
2023-05-05T07:27:06.562Z,2.42
2023-05-05T07:29:33.967Z,2.80
2023-05-05T07:32:01.643Z,18.45
2023-05-05T07:34:29.070Z,3.28
2023-05-05T07:36:56.626Z,3.22
2023-05-05T07:39:24.074Z,3.75
2023-05-05T07:41:51.624Z,2.70
2023-05-05T07:44:19.000Z,3.05
2023-05-05T07:46:46.861Z,2.97
2023-05-05T07:49:14.376Z,2.47
2023-05-05T07:51:42.229Z,2.72
2023-05-05T07:54:09.609Z,2.90
2023-05-05T07:56:37.034Z,2.97
2023-05-05T07:59:04.423Z,3.30
2023-05-05T08:01:31.723Z,3.72
2023-05-05T08:04:01.559Z,3.35
2023-05-05T08:06:29.313Z,10.23
2023-05-05T08:08:56.601Z,7.43
2023-05-05T08:11:23.939Z,3.53
2023-05-05T08:13:51.248Z,3.60
2023-05-05T08:16:18.708Z,3.45
2023-05-05T08:18:46.288Z,3.60
2023-05-05T08:21:13.691Z,7.05
2023-05-05T08:23:40.989Z,4.43
2023-05-05T08:26:09.398Z,4.03
2023-05-05T08:28:37.081Z,6.43
2023-05-05T08:31:05.883Z,4.95
2023-05-05T08:33:33.386Z,4.43
2023-05-05T08:36:00.626Z,4.57
2023-05-05T08:38:28.124Z,4.10
2023-05-05T08:40:55.441Z,4.60
2023-05-05T08:43:24.087Z,4.38
2023-05-05T08:45:51.992Z,5.00
2023-05-05T08:48:22.872Z,4.70
2023-05-05T08:50:59.800Z,5.20
2023-05-05T08:53:36.822Z,5.75
2023-05-05T08:56:05.623Z,4.30
2023-05-05T08:58:33.839Z,4.20
2023-05-05T09:01:01.824Z,4.00
2023-05-05T09:03:30.259Z,3.92
2023-05-05T09:05:58.126Z,3.88
2023-05-05T09:08:26.503Z,4.53
2023-05-05T09:10:55.845Z,5.32
2023-05-05T09:13:26.650Z,3.47
2023-05-05T09:15:53.978Z,4.10
2023-05-05T09:18:21.320Z,5.13
2023-05-05T09:20:48.835Z,4.93
2023-05-05T09:23:18.413Z,4.82
2023-05-05T09:25:47.742Z,4.55
2023-05-05T09:28:17.163Z,4.10
2023-05-05T09:30:46.618Z,3.50
2023-05-05T09:33:14.438Z,4.00
2023-05-05T09:35:50.196Z,5.10
2023-05-05T09:38:18.130Z,4.80
2023-05-05T09:40:49.779Z,5.38
2023-05-05T09:43:18.071Z,4.75
2023-05-05T09:45:46.278Z,4.03
2023-05-05T09:48:24.710Z,4.95
2023-05-05T09:50:52.302Z,4.68
2023-05-05T09:53:20.202Z,4.25
2023-05-05T09:56:01.223Z,4.20
2023-05-05T09:58:30.903Z,4.15
2023-05-05T10:00:59.322Z,5.65
2023-05-05T10:03:27.104Z,4.65
2023-05-05T10:05:59.861Z,4.45
2023-05-05T10:08:29.547Z,4.30
2023-05-05T10:10:57.983Z,3.88
2023-05-05T10:13:25.760Z,3.97
2023-05-05T10:16:05.455Z,3.90
2023-05-05T10:18:33.183Z,3.75
2023-05-05T10:21:02.444Z,6.43
2023-05-05T10:23:39.334Z,4.00
2023-05-05T10:26:08.465Z,5.15
2023-05-05T10:28:49.526Z,4.30
2023-05-05T10:31:34.617Z,3.60
2023-05-05T10:34:10.378Z,6.72
2023-05-05T10:36:39.572Z,3.80
2023-05-05T10:39:09.516Z,3.40
2023-05-05T10:41:38.025Z,3.55
2023-05-05T10:44:06.389Z,3.42
2023-05-05T10:46:33.776Z,3.70
2023-05-05T10:49:54.519Z,3.83
2023-05-05T10:52:40.647Z,3.60
2023-05-05T10:55:18.135Z,3.63
2023-05-05T10:57:46.739Z,3.22
2023-05-05T11:00:39.901Z,2.90
2023-05-05T11:03:19.495Z,4.00
2023-05-05T11:06:05.870Z,4.40
2023-05-05T11:08:38.793Z,3.65
2023-05-05T11:11:06.681Z,4.00
2023-05-05T11:13:34.337Z,3.50
2023-05-05T11:16:05.542Z,4.68
2023-05-05T11:21:11.806Z,3.75
2023-05-05T11:23:39.307Z,3.75
2023-05-05T11:26:06.582Z,4.10
2023-05-05T11:28:34.038Z,3.92
2023-05-05T11:31:04.612Z,3.58
2023-05-05T11:33:38.428Z,3.88
2023-05-05T11:36:07.296Z,4.03
2023-05-05T11:38:55.897Z,4.10
2023-05-05T11:41:36.548Z,5.13
2023-05-05T11:44:14.239Z,4.13
2023-05-05T11:46:51.717Z,3.47
2023-05-05T11:49:33.901Z,3.72
2023-05-05T11:52:15.168Z,8.18
2023-05-05T11:54:49.242Z,3.90
2023-05-05T11:57:21.455Z,4.38
2023-05-05T11:59:54.775Z,3.88
2023-05-05T12:02:23.371Z,3.38
2023-05-05T12:04:54.197Z,3.90
2023-05-05T12:07:24.532Z,3.70
2023-05-05T12:09:52.060Z,3.75
2023-05-05T12:12:20.535Z,4.13
2023-05-05T12:14:52.525Z,4.85
2023-05-05T12:17:21.393Z,4.18
2023-05-05T12:19:53.169Z,4.38
2023-05-05T12:22:22.793Z,3.90
2023-05-05T12:25:09.448Z,4.00
2023-05-05T12:27:37.265Z,3.75
2023-05-05T12:30:18.456Z,4.18
2023-05-05T12:32:46.497Z,4.32
2023-05-05T12:35:14.546Z,36.67
2023-05-05T12:37:43.284Z,91.97
2023-05-05T12:40:44.190Z,18.10
2023-05-05T12:43:28.026Z,5.47
2023-05-05T12:46:07.229Z,5.70
2023-05-05T12:48:36.059Z,3.70
2023-05-05T12:51:23.531Z,3.90
2023-05-05T12:54:11.596Z,3.92
2023-05-05T12:56:44.326Z,3.90
2023-05-05T12:59:21.730Z,3.90
2023-05-05T13:01:50.595Z,3.47
2023-05-05T13:04:19.560Z,3.67
2023-05-05T13:06:48.427Z,3.25
2023-05-05T13:09:36.172Z,5.57
2023-05-05T13:12:04.616Z,3.63
2023-05-05T13:14:32.774Z,3.63
2023-05-05T13:17:00.265Z,3.55
2023-05-05T13:19:27.906Z,3.80
2023-05-05T13:21:56.738Z,4.07
2023-05-05T13:24:37.911Z,4.00
2023-05-05T13:27:12.917Z,5.30
2023-05-05T13:29:41.783Z,6.60
2023-05-05T13:32:09.041Z,5.25
2023-05-05T13:34:36.462Z,3.75
2023-05-05T13:37:03.640Z,3.83
2023-05-05T13:39:30.992Z,3.58
2023-05-05T13:41:58.360Z,4.22
2023-05-05T13:44:25.751Z,3.90
2023-05-05T13:46:53.224Z,3.50
2023-05-05T13:49:20.539Z,4.18
2023-05-05T13:51:47.977Z,3.92
2023-05-05T13:54:15.360Z,4.28
2023-05-05T13:56:42.738Z,5.60
2023-05-05T13:59:10.361Z,4.05
2023-05-05T14:01:37.933Z,4.50
2023-05-05T14:04:05.921Z,8.73
2023-05-05T14:06:34.430Z,4.28
2023-05-05T14:09:06.534Z,7.13
2023-05-05T14:11:34.192Z,4.10
2023-05-05T14:14:01.581Z,5.82
2023-05-05T14:16:29.034Z,4.22
2023-05-05T14:18:56.293Z,4.43
2023-05-05T14:21:23.650Z,4.55
2023-05-05T14:23:51.078Z,4.90
2023-05-05T14:26:18.596Z,7.05
2023-05-05T14:28:48.942Z,11.30
2023-05-05T14:31:20.012Z,8.45
2023-05-05T14:33:47.342Z,5.07
2023-05-05T14:36:14.580Z,6.03
2023-05-05T14:38:43.128Z,4.70
2023-05-05T14:41:11.203Z,8.82
2023-05-05T14:43:38.748Z,6.57
2023-05-05T14:46:07.367Z,4.50
2023-05-05T14:48:35.137Z,6.18
2023-05-05T14:51:02.534Z,5.20
2023-05-05T14:53:29.912Z,4.20
2023-05-05T14:55:57.290Z,4.75
2023-05-05T14:58:24.936Z,4.40
2023-05-05T15:00:54.890Z,4.47
2023-05-05T15:03:22.325Z,4.22
2023-05-05T15:05:49.715Z,4.30
2023-05-05T15:08:18.844Z,4.10
2023-05-05T15:10:46.791Z,4.25
2023-05-05T15:13:14.624Z,4.13
2023-05-05T15:15:42.032Z,4.53
2023-05-05T15:18:09.450Z,4.05
2023-05-05T15:20:36.717Z,5.13
2023-05-05T15:23:05.419Z,5.05
2023-05-05T15:25:37.090Z,5.13
2023-05-05T15:28:06.713Z,4.65
2023-05-05T15:30:34.303Z,5.10
2023-05-05T15:33:01.932Z,5.07
2023-05-05T15:35:29.440Z,4.80
2023-05-05T15:37:56.668Z,4.82
2023-05-05T15:40:24.167Z,4.75
2023-05-05T15:42:52.136Z,5.22
2023-05-05T15:45:19.552Z,4.80
2023-05-05T15:47:53.512Z,4.72
2023-05-05T15:50:24.241Z,4.97
2023-05-05T15:53:01.954Z,5.10
2023-05-05T15:55:29.409Z,4.60
2023-05-05T15:57:56.750Z,4.95
2023-05-05T16:00:24.113Z,5.97
2023-05-05T16:02:51.473Z,4.80
2023-05-05T16:05:20.736Z,4.82
2023-05-05T16:07:50.282Z,5.20
2023-05-05T16:10:19.611Z,4.80
2023-05-05T16:12:47.045Z,6.20
2023-05-05T16:15:14.536Z,4.60
2023-05-05T16:17:41.875Z,5.78
2023-05-05T16:20:09.770Z,7.38
2023-05-05T16:22:37.318Z,4.78
2023-05-05T16:25:04.964Z,5.47
2023-05-05T16:27:32.247Z,5.03
2023-05-05T16:29:59.893Z,4.63
2023-05-05T16:32:27.416Z,4.90
2023-05-05T16:34:55.447Z,4.75
2023-05-05T16:37:22.955Z,4.95
2023-05-05T16:39:50.389Z,4.38
2023-05-05T16:42:17.738Z,5.28
2023-05-05T16:44:45.019Z,5.40
2023-05-05T16:47:12.375Z,4.88
2023-05-05T16:49:39.661Z,5.22
2023-05-05T16:52:07.217Z,4.43
2023-05-05T16:54:34.492Z,4.68
2023-05-05T16:57:02.573Z,5.40
2023-05-05T16:59:31.625Z,4.82
2023-05-05T17:01:59.411Z,5.32
2023-05-05T17:04:26.882Z,5.90
2023-05-05T17:06:55.537Z,6.15
2023-05-05T17:09:25.785Z,6.18
2023-05-05T17:11:53.266Z,5.72
2023-05-05T17:14:20.582Z,6.35
2023-05-05T17:16:48.071Z,6.40
2023-05-05T17:19:15.465Z,15.50
2023-05-05T17:21:45.826Z,6.25
2023-05-05T17:24:13.225Z,5.97
2023-05-05T17:26:41.636Z,5.40
2023-05-05T17:29:39.137Z,5.68
2023-05-05T17:32:07.334Z,5.78
2023-05-05T17:34:34.830Z,6.30
2023-05-05T17:37:02.327Z,6.80
2023-05-05T17:39:30.178Z,6.50
2023-05-05T17:41:57.492Z,5.53
2023-05-05T17:44:24.855Z,6.28
2023-05-05T17:46:52.368Z,6.05
2023-05-05T17:49:21.658Z,6.72
2023-05-05T17:51:48.939Z,7.47
2023-05-05T17:54:16.397Z,6.90
2023-05-05T17:56:46.459Z,6.72
2023-05-05T17:59:13.947Z,6.85
2023-05-05T18:01:41.289Z,6.75
2023-05-05T18:04:10.182Z,6.85
2023-05-05T18:06:37.952Z,6.38
2023-05-05T18:09:05.851Z,7.13
2023-05-05T18:11:34.202Z,6.10
2023-05-05T18:14:03.045Z,5.88
2023-05-05T18:16:31.220Z,8.35
2023-05-05T18:18:58.536Z,6.20
2023-05-05T18:21:26.066Z,5.57
2023-05-05T18:23:57.256Z,5.63
2023-05-05T18:26:29.325Z,7.20
2023-05-05T18:28:56.704Z,7.28
2023-05-05T18:31:25.399Z,6.78
2023-05-05T18:33:53.051Z,7.25
2023-05-05T18:36:20.532Z,6.85
2023-05-05T18:38:47.988Z,7.07
2023-05-05T18:41:15.666Z,7.03
2023-05-05T18:43:42.983Z,7.15
2023-05-05T18:46:11.079Z,7.85
2023-05-05T18:48:38.460Z,6.97
2023-05-05T18:51:06.122Z,6.97
2023-05-05T18:53:36.766Z,7.90
2023-05-05T18:56:04.224Z,7.72
2023-05-05T18:58:31.639Z,7.82
2023-05-05T19:00:59.118Z,8.82
2023-05-05T19:03:26.924Z,12.88
2023-05-05T19:05:54.369Z,30.17
2023-05-05T19:08:22.704Z,10.57
2023-05-05T19:10:50.055Z,8.20
2023-05-05T19:13:17.671Z,10.88
2023-05-05T19:15:45.372Z,12.00
2023-05-05T19:18:12.788Z,9.68
2023-05-05T19:20:43.031Z,9.73
2023-05-05T19:23:11.342Z,19.23
2023-05-05T19:25:39.643Z,30.55
2023-05-05T19:28:07.070Z,96.78
2023-05-05T19:30:34.549Z,76.30
2023-05-05T19:33:01.846Z,16.90
2023-05-05T19:35:30.627Z,26.67
2023-05-05T19:37:58.333Z,17.10
2023-05-05T19:40:25.765Z,10.65
2023-05-05T19:42:57.976Z,12.68
2023-05-05T19:48:01.710Z,10.00
2023-05-05T19:50:30.639Z,9.07
2023-05-05T19:53:16.929Z,10.02
2023-05-05T19:59:01.612Z,9.27
2023-05-05T20:02:04.016Z,8.60
2023-05-05T20:04:31.547Z,10.75
2023-05-05T20:06:59.720Z,22.60
2023-05-05T20:09:28.039Z,11.32
2023-05-05T20:11:56.743Z,14.95
2023-05-05T20:14:25.491Z,9.05
2023-05-05T20:16:52.878Z,9.10
2023-05-05T20:19:20.128Z,8.35
2023-05-05T20:21:47.421Z,9.07
2023-05-05T20:24:14.847Z,8.02
2023-05-05T20:26:45.056Z,9.20
2023-05-05T20:29:25.556Z,8.95
2023-05-05T20:32:03.428Z,8.88
2023-05-05T20:34:40.832Z,9.52
2023-05-05T20:37:36.179Z,10.50
2023-05-05T20:40:14.269Z,9.48
2023-05-05T20:42:41.698Z,15.40
2023-05-05T20:45:10.965Z,25.27
2023-05-05T20:47:38.393Z,10.02
2023-05-05T20:50:11.390Z,11.63
2023-05-05T20:52:39.129Z,11.52
2023-05-05T20:55:06.867Z,41.15
2023-05-05T20:57:37.161Z,68.40
2023-05-05T21:00:07.982Z,77.43
2023-05-05T21:02:38.335Z,54.28
2023-05-05T21:05:12.094Z,35.80
2023-05-05T21:07:39.644Z,22.35
2023-05-05T21:10:10.101Z,31.33
2023-05-05T21:12:41.516Z,9.75
2023-05-05T21:15:09.725Z,10.75
2023-05-05T21:17:39.531Z,8.57
2023-05-05T21:20:16.856Z,9.75
2023-05-05T21:22:44.511Z,8.27
2023-05-05T21:25:22.309Z,8.35
2023-05-05T21:27:56.454Z,9.95
2023-05-05T21:30:31.734Z,7.70
2023-05-05T21:33:01.815Z,7.38
2023-05-05T21:35:29.420Z,8.20
2023-05-05T21:38:01.624Z,8.70
2023-05-05T21:42:59.559Z,8.82
2023-05-05T21:45:26.977Z,8.23
2023-05-05T21:47:54.386Z,8.45
2023-05-05T21:50:29.607Z,9.35
2023-05-05T21:52:59.593Z,8.25
2023-05-05T21:55:29.878Z,10.23
2023-05-05T21:57:57.380Z,8.40
2023-05-05T22:00:24.881Z,14.07
2023-05-05T22:02:55.080Z,9.75
2023-05-05T22:05:25.616Z,8.02
2023-05-05T22:07:52.984Z,9.45
2023-05-05T22:10:22.548Z,12.10
2023-05-05T22:12:50.284Z,9.38
2023-05-05T22:15:22.788Z,8.48
2023-05-05T22:17:51.540Z,10.25
2023-05-05T22:20:22.728Z,10.52
2023-05-05T22:22:50.168Z,9.80
2023-05-05T22:25:17.607Z,12.85
2023-05-05T22:27:45.735Z,12.85
2023-05-05T22:30:15.511Z,18.08
2023-05-05T22:32:50.656Z,10.98
2023-05-05T22:35:18.047Z,10.20
2023-05-05T22:37:45.577Z,10.02
2023-05-05T22:40:15.017Z,38.72
2023-05-05T22:42:55.008Z,108.53
2023-05-05T22:45:23.145Z,37.97
2023-05-05T22:47:51.184Z,12.40
2023-05-05T22:50:19.186Z,12.02
2023-05-05T22:52:46.423Z,10.77
2023-05-05T22:55:15.175Z,9.73
2023-05-05T22:57:42.722Z,11.15
2023-05-05T23:00:10.906Z,10.27
2023-05-05T23:02:38.425Z,16.88
2023-05-05T23:05:06.218Z,13.18
2023-05-05T23:07:33.523Z,13.20
2023-05-05T23:10:00.862Z,15.13
2023-05-05T23:12:28.256Z,14.35
2023-05-05T23:14:55.891Z,11.82
2023-05-05T23:17:23.249Z,15.43
2023-05-05T23:19:50.828Z,14.00
2023-05-05T23:22:18.125Z,16.73
2023-05-05T23:24:45.466Z,12.77
2023-05-05T23:27:13.370Z,11.35
2023-05-05T23:29:40.699Z,12.07
2023-05-05T23:32:09.220Z,11.23
2023-05-05T23:34:36.437Z,11.50
2023-05-05T23:37:05.921Z,11.52
2023-05-05T23:39:36.353Z,10.38
2023-05-05T23:42:03.707Z,10.35
2023-05-05T23:44:31.053Z,11.50
2023-05-05T23:46:58.367Z,10.63
2023-05-05T23:49:26.549Z,9.30
2023-05-05T23:51:53.822Z,9.05
2023-05-05T23:54:21.247Z,9.80
2023-05-05T23:56:48.592Z,8.98
2023-05-05T23:59:15.934Z,9.43
